Time;durP1;ratioP1;P1;durP2;ratioP2;P2;SDS_P1;SDS_P2;PMS_P1;PMS_P2;Temp;Humidity;BMP_temperature;BMP_pressure;BME280_temperature;BME280_humidity;BME280_pressure;Samples;Min_cycle;Max_cycle;Signal;HPM_P1;HPM_P2
2023/07/21 00:01:11;;;;;;;2.15;1.40;;;;;;;;;;4957891;28;20065;-85
2023/07/21 00:03:38;;;;;;;1.88;1.42;;;;;;;;;;4956545;28;20520;-84
2023/07/21 00:06:06;;;;;;;2.83;1.40;;;;;;;;;;4975045;28;20042;-85
2023/07/21 00:08:32;;;;;;;5.28;1.20;;;;;;;;;;4976694;28;20121;-84
2023/07/21 00:10:58;;;;;;;2.55;1.50;;;;;;;;;;4974119;28;20018;-85
2023/07/21 00:13:25;;;;;;;4.03;1.60;;;;;;;;;;4979969;28;20022;-85
2023/07/21 00:15:51;;;;;;;2.28;1.63;;;;;;;;;;4987054;28;20018;-84
2023/07/21 00:18:16;;;;;;;1.48;1.38;;;;;;;;;;4975692;28;20516;-86
2023/07/21 00:20:42;;;;;;;3.67;1.60;;;;;;;;;;4979905;28;20026;-85
2023/07/21 00:23:07;;;;;;;2.22;1.65;;;;;;;;;;4966957;28;20024;-85
2023/07/21 00:25:35;;;;;;;4.45;1.75;;;;;;;;;;4973098;28;20030;-84
2023/07/21 00:28:25;;;;;;;1.90;1.38;;;;;;;;;;4980631;28;20023;-84
2023/07/21 00:30:53;;;;;;;3.58;1.40;;;;;;;;;;4963515;28;20095;-84
2023/07/21 00:33:19;;;;;;;4.40;1.70;;;;;;;;;;4957295;28;20027;-84
2023/07/21 00:35:44;;;;;;;5.63;1.80;;;;;;;;;;4991510;28;20027;-84
2023/07/21 00:38:10;;;;;;;3.05;1.40;;;;;;;;;;4980048;28;20023;-84
2023/07/21 00:40:39;;;;;;;1.75;1.42;;;;;;;;;;4972664;28;20085;-84
2023/07/21 00:43:05;;;;;;;4.03;1.48;;;;;;;;;;4972619;28;20027;-84
2023/07/21 00:45:37;;;;;;;4.72;1.58;;;;;;;;;;4981525;28;20126;-84
2023/07/21 00:48:07;;;;;;;7.55;1.58;;;;;;;;;;4977212;28;20137;-84
2023/07/21 00:50:37;;;;;;;2.60;1.45;;;;;;;;;;4973060;28;20027;-84
2023/07/21 00:53:20;;;;;;;2.10;1.60;;;;;;;;;;4963794;28;20029;-84
2023/07/21 00:55:47;;;;;;;3.70;1.30;;;;;;;;;;4963784;28;20046;-84
2023/07/21 00:58:13;;;;;;;3.15;1.60;;;;;;;;;;4998594;28;20097;-85
2023/07/21 01:00:41;;;;;;;2.70;1.40;;;;;;;;;;4961186;28;20023;-84
2023/07/21 01:03:10;;;;;;;2.58;1.40;;;;;;;;;;4954939;28;20488;-84
2023/07/21 01:05:38;;;;;;;2.35;1.65;;;;;;;;;;4978204;28;20033;-84
2023/07/21 01:08:04;;;;;;;3.15;1.50;;;;;;;;;;4961972;28;20033;-84
2023/07/21 01:10:35;;;;;;;2.65;1.50;;;;;;;;;;4976693;28;20065;-85
2023/07/21 01:13:01;;;;;;;3.30;1.85;;;;;;;;;;4956343;28;20019;-84
2023/07/21 01:15:31;;;;;;;6.70;1.90;;;;;;;;;;4978651;28;20031;-85
2023/07/21 01:17:58;;;;;;;3.67;1.63;;;;;;;;;;4974490;28;20037;-83
2023/07/21 01:20:28;;;;;;;2.33;1.67;;;;;;;;;;4958643;28;20042;-85
2023/07/21 01:23:02;;;;;;;2.63;1.23;;;;;;;;;;4970589;28;20054;-84
2023/07/21 01:25:30;;;;;;;3.28;1.38;;;;;;;;;;4973040;28;20596;-83
2023/07/21 01:27:58;;;;;;;3.50;1.50;;;;;;;;;;4977240;28;20030;-83
2023/07/21 01:30:24;;;;;;;2.40;1.70;;;;;;;;;;4961121;28;20035;-83
2023/07/21 01:32:51;;;;;;;7.00;1.70;;;;;;;;;;4977614;28;20409;-83
2023/07/21 01:35:18;;;;;;;4.60;1.70;;;;;;;;;;4963731;28;20117;-82
2023/07/21 01:37:45;;;;;;;2.95;1.55;;;;;;;;;;4975044;28;20019;-83
2023/07/21 01:40:13;;;;;;;1.95;1.17;;;;;;;;;;4960254;28;20025;-84
2023/07/21 01:42:40;;;;;;;2.63;1.73;;;;;;;;;;4977793;28;20023;-82
2023/07/21 01:45:07;;;;;;;3.20;1.55;;;;;;;;;;4953481;29;20070;-85
2023/07/21 01:47:33;;;;;;;5.10;1.73;;;;;;;;;;4952598;28;20023;-85
2023/07/21 01:50:00;;;;;;;2.75;1.70;;;;;;;;;;4960441;28;20078;-83
2023/07/21 01:52:28;;;;;;;2.95;1.58;;;;;;;;;;4977108;28;20504;-84
2023/07/21 01:55:09;;;;;;;3.65;1.70;;;;;;;;;;4972493;28;20027;-83
2023/07/21 01:57:38;;;;;;;2.67;1.70;;;;;;;;;;4976774;28;20034;-83
2023/07/21 02:00:08;;;;;;;4.13;1.70;;;;;;;;;;4981498;28;20059;-84
2023/07/21 02:02:34;;;;;;;2.42;1.55;;;;;;;;;;4977214;28;20026;-83
2023/07/21 02:04:59;;;;;;;4.72;2.10;;;;;;;;;;4974968;28;20026;-84
2023/07/21 02:07:24;;;;;;;2.83;1.40;;;;;;;;;;4977021;28;20421;-84
2023/07/21 02:09:51;;;;;;;3.47;1.75;;;;;;;;;;4967695;28;20049;-84
2023/07/21 02:12:16;;;;;;;3.65;1.73;;;;;;;;;;4982293;28;20050;-84
2023/07/21 02:14:42;;;;;;;2.85;1.38;;;;;;;;;;4979473;28;20030;-84
2023/07/21 02:17:08;;;;;;;2.78;1.60;;;;;;;;;;4959885;28;20078;-83
2023/07/21 02:19:33;;;;;;;2.53;1.70;;;;;;;;;;4966679;28;20026;-84
2023/07/21 02:21:59;;;;;;;3.63;2.00;;;;;;;;;;4958134;28;20489;-84
2023/07/21 02:24:24;;;;;;;3.65;2.00;;;;;;;;;;4980447;28;20040;-83
2023/07/21 02:26:50;;;;;;;2.60;1.83;;;;;;;;;;4984636;28;20492;-84
2023/07/21 02:29:15;;;;;;;3.55;1.75;;;;;;;;;;4947830;29;20034;-84
2023/07/21 02:31:41;;;;;;;1.92;1.55;;;;;;;;;;4973780;28;20069;-83
2023/07/21 02:34:06;;;;;;;2.50;1.58;;;;;;;;;;4965746;28;20042;-83
2023/07/21 02:36:31;;;;;;;5.20;1.65;;;;;;;;;;4966013;28;20027;-85
2023/07/21 02:38:57;;;;;;;2.65;1.75;;;;;;;;;;4990197;28;20024;-84
2023/07/21 02:41:22;;;;;;;2.33;1.48;;;;;;;;;;4965134;28;20437;-85
2023/07/21 02:43:47;;;;;;;3.17;1.92;;;;;;;;;;4967738;28;20113;-84
2023/07/21 02:46:14;;;;;;;2.28;1.65;;;;;;;;;;4977670;28;20061;-84
2023/07/21 02:48:40;;;;;;;2.53;1.90;;;;;;;;;;4961170;28;20045;-85
2023/07/21 02:51:05;;;;;;;2.10;1.63;;;;;;;;;;4968336;28;20061;-85
2023/07/21 02:53:31;;;;;;;4.05;1.55;;;;;;;;;;4955707;28;20030;-84
2023/07/21 02:55:57;;;;;;;2.45;1.70;;;;;;;;;;4967993;28;20121;-84
2023/07/21 02:58:26;;;;;;;5.22;2.03;;;;;;;;;;4957648;28;20545;-85
2023/07/21 03:00:54;;;;;;;2.88;1.85;;;;;;;;;;4979175;28;20105;-85
2023/07/21 03:03:19;;;;;;;2.75;1.95;;;;;;;;;;4976240;28;20023;-85
2023/07/21 03:05:45;;;;;;;2.22;1.63;;;;;;;;;;4958250;28;20031;-84
2023/07/21 03:08:14;;;;;;;2.15;1.50;;;;;;;;;;4971666;28;20038;-83
2023/07/21 03:10:39;;;;;;;3.05;1.90;;;;;;;;;;4959496;28;20030;-83
2023/07/21 03:13:05;;;;;;;3.75;1.83;;;;;;;;;;4959521;28;20106;-83
2023/07/21 03:15:30;;;;;;;6.75;1.95;;;;;;;;;;4958856;28;20031;-83
2023/07/21 03:17:56;;;;;;;3.92;2.00;;;;;;;;;;4976517;28;20041;-83
2023/07/21 03:20:21;;;;;;;4.95;1.70;;;;;;;;;;4956672;28;20406;-85
2023/07/21 03:22:46;;;;;;;3.97;1.88;;;;;;;;;;4974580;28;20034;-84
2023/07/21 03:25:13;;;;;;;2.30;1.67;;;;;;;;;;4977833;28;20034;-83
2023/07/21 03:27:39;;;;;;;3.63;1.92;;;;;;;;;;4986200;28;20089;-83
2023/07/21 03:30:06;;;;;;;2.90;1.80;;;;;;;;;;4985266;28;20425;-83
2023/07/21 03:32:31;;;;;;;3.92;1.80;;;;;;;;;;4964682;28;20053;-85
2023/07/21 03:34:57;;;;;;;3.13;2.00;;;;;;;;;;4978673;28;20031;-85
2023/07/21 03:37:23;;;;;;;2.50;1.75;;;;;;;;;;4964895;28;20038;-86
2023/07/21 03:39:48;;;;;;;2.63;1.83;;;;;;;;;;4964168;28;20125;-85
2023/07/21 03:42:14;;;;;;;1.50;1.40;;;;;;;;;;4987485;28;20034;-84
2023/07/21 03:44:39;;;;;;;4.95;1.83;;;;;;;;;;4961783;28;20035;-85
2023/07/21 03:47:05;;;;;;;4.95;2.17;;;;;;;;;;4964367;28;20027;-84
2023/07/21 03:49:31;;;;;;;6.03;2.15;;;;;;;;;;4960227;28;20030;-84
2023/07/21 03:51:57;;;;;;;3.28;1.73;;;;;;;;;;4982933;28;20023;-85
2023/07/21 03:54:22;;;;;;;3.35;1.98;;;;;;;;;;4958622;29;20085;-86
2023/07/21 03:56:48;;;;;;;2.78;1.70;;;;;;;;;;4987476;28;20034;-84
2023/07/21 03:59:13;;;;;;;2.78;1.70;;;;;;;;;;4957530;29;20026;-86
2023/07/21 04:01:38;;;;;;;2.33;1.73;;;;;;;;;;4979213;28;20038;-85
2023/07/21 04:04:05;;;;;;;2.33;1.40;;;;;;;;;;4967210;28;20614;-86
2023/07/21 04:06:30;;;;;;;2.88;1.80;;;;;;;;;;4967984;28;20031;-85
2023/07/21 04:08:56;;;;;;;4.00;1.85;;;;;;;;;;4976583;28;20098;-84
2023/07/21 04:11:21;;;;;;;5.78;1.95;;;;;;;;;;4963435;28;20378;-85
2023/07/21 04:13:46;;;;;;;4.57;1.77;;;;;;;;;;4962455;28;20027;-86
2023/07/21 04:16:12;;;;;;;3.50;1.77;;;;;;;;;;4969296;28;20050;-84
2023/07/21 04:18:38;;;;;;;3.30;1.60;;;;;;;;;;4984088;28;20107;-83
2023/07/21 04:21:04;;;;;;;2.83;1.90;;;;;;;;;;4981400;28;20592;-84
2023/07/21 04:23:29;;;;;;;3.75;1.83;;;;;;;;;;4960318;29;20067;-85
2023/07/21 04:25:54;;;;;;;2.92;1.77;;;;;;;;;;4964706;28;20098;-85
2023/07/21 04:28:20;;;;;;;8.32;1.88;;;;;;;;;;4959273;28;20023;-85
2023/07/21 04:30:47;;;;;;;2.65;1.60;;;;;;;;;;4989471;28;20134;-85
2023/07/21 04:33:12;;;;;;;3.47;1.77;;;;;;;;;;4988879;28;20015;-84
2023/07/21 04:35:45;;;;;;;14.10;1.77;;;;;;;;;;4959635;29;20105;-85
2023/07/21 04:38:11;;;;;;;5.63;1.77;;;;;;;;;;4951629;29;20027;-85
2023/07/21 04:40:36;;;;;;;3.55;1.98;;;;;;;;;;4958933;28;20365;-85
2023/07/21 04:43:01;;;;;;;6.15;2.58;;;;;;;;;;4981243;28;20152;-85
2023/07/21 04:45:27;;;;;;;2.72;1.98;;;;;;;;;;4977395;28;20027;-85
2023/07/21 04:47:53;;;;;;;5.85;2.47;;;;;;;;;;4989910;28;20034;-86
2023/07/21 04:50:18;;;;;;;3.30;1.98;;;;;;;;;;4992875;28;20082;-85
2023/07/21 04:52:44;;;;;;;4.82;2.03;;;;;;;;;;4979480;28;20038;-85
2023/07/21 04:55:10;;;;;;;4.93;2.40;;;;;;;;;;4986243;28;20038;-86
2023/07/21 04:57:35;;;;;;;4.57;2.10;;;;;;;;;;4973294;28;20430;-85
2023/07/21 05:00:01;;;;;;;3.72;2.10;;;;;;;;;;4984720;28;20027;-84
2023/07/21 05:02:29;;;;;;;2.67;1.90;;;;;;;;;;4958534;28;20054;-86
2023/07/21 05:04:57;;;;;;;4.65;2.35;;;;;;;;;;4963349;28;20135;-87
2023/07/21 05:07:23;;;;;;;3.85;2.00;;;;;;;;;;4957342;28;20027;-86
2023/07/21 05:09:48;;;;;;;7.47;2.45;;;;;;;;;;4970316;28;20084;-86
2023/07/21 05:12:14;;;;;;;3.47;2.05;;;;;;;;;;4980231;28;20572;-86
2023/07/21 05:14:39;;;;;;;5.35;2.10;;;;;;;;;;4961204;29;20031;-85
2023/07/21 05:17:04;;;;;;;4.47;1.98;;;;;;;;;;4974572;28;20417;-85
2023/07/21 05:19:30;;;;;;;7.88;2.33;;;;;;;;;;4967970;28;20063;-86
2023/07/21 05:22:15;;;;;;;5.30;2.13;;;;;;;;;;4971996;28;20034;-85
2023/07/21 05:24:41;;;;;;;5.00;2.13;;;;;;;;;;4973603;28;20023;-86
2023/07/21 05:27:07;;;;;;;6.78;2.20;;;;;;;;;;4978261;28;20114;-87
2023/07/21 05:29:33;;;;;;;6.05;2.13;;;;;;;;;;4958463;28;20058;-86
2023/07/21 05:32:09;;;;;;;4.10;2.35;;;;;;;;;;4968836;28;20025;-85
2023/07/21 05:34:34;;;;;;;6.53;2.13;;;;;;;;;;4957406;29;20019;-86
2023/07/21 05:37:01;;;;;;;5.72;2.28;;;;;;;;;;4972283;28;20023;-86
2023/07/21 05:39:29;;;;;;;3.03;1.98;;;;;;;;;;4986639;28;20037;-86
2023/07/21 05:41:59;;;;;;;2.70;1.90;;;;;;;;;;4956629;28;20053;-86
2023/07/21 05:44:26;;;;;;;6.63;2.28;;;;;;;;;;4966573;28;20033;-85
2023/07/21 05:46:52;;;;;;;10.50;2.92;;;;;;;;;;4965613;28;20023;-86
2023/07/21 05:49:17;;;;;;;8.23;3.25;;;;;;;;;;4991030;28;20022;-85
2023/07/21 05:51:43;;;;;;;6.85;2.30;;;;;;;;;;4988089;28;20026;-86
2023/07/21 05:54:09;;;;;;;6.78;2.53;;;;;;;;;;4984698;28;20039;-85
2023/07/21 05:56:34;;;;;;;5.15;2.63;;;;;;;;;;4962125;28;20023;-85
2023/07/21 05:58:59;;;;;;;4.47;1.98;;;;;;;;;;4978125;28;20117;-85
2023/07/21 06:01:26;;;;;;;3.03;2.05;;;;;;;;;;4978511;28;20027;-86
2023/07/21 06:03:52;;;;;;;4.72;2.50;;;;;;;;;;4959166;28;20022;-86
2023/07/21 06:06:17;;;;;;;6.07;2.25;;;;;;;;;;4992863;28;20015;-85
2023/07/21 06:08:43;;;;;;;4.40;2.38;;;;;;;;;;4962168;28;20086;-85
2023/07/21 06:11:09;;;;;;;3.55;2.10;;;;;;;;;;4978330;28;20042;-85
2023/07/21 06:13:34;;;;;;;3.83;2.13;;;;;;;;;;4955115;29;20114;-84
2023/07/21 06:15:59;;;;;;;4.50;1.90;;;;;;;;;;4976797;28;20019;-85
2023/07/21 06:18:25;;;;;;;4.78;1.98;;;;;;;;;;4978040;28;20081;-85
2023/07/21 06:20:52;;;;;;;4.13;1.75;;;;;;;;;;4977541;28;20022;-86
2023/07/21 06:23:18;;;;;;;3.30;1.90;;;;;;;;;;4948614;28;20023;-86
2023/07/21 06:25:45;;;;;;;2.70;1.60;;;;;;;;;;4978589;28;20034;-86
2023/07/21 06:28:11;;;;;;;3.05;1.70;;;;;;;;;;4968294;28;20503;-85
2023/07/21 06:30:37;;;;;;;4.30;1.73;;;;;;;;;;4977993;28;20035;-85
2023/07/21 06:33:06;;;;;;;3.50;2.00;;;;;;;;;;4983888;28;20439;-85
2023/07/21 06:35:33;;;;;;;4.57;2.00;;;;;;;;;;4968350;28;20074;-85
2023/07/21 06:37:58;;;;;;;3.63;1.80;;;;;;;;;;4956019;29;20449;-85
2023/07/21 06:40:24;;;;;;;3.20;1.58;;;;;;;;;;4952655;28;20112;-85
2023/07/21 06:42:49;;;;;;;12.75;2.22;;;;;;;;;;4980815;28;20022;-84
2023/07/21 06:45:15;;;;;;;3.70;1.92;;;;;;;;;;4962225;28;20488;-86
2023/07/21 06:47:40;;;;;;;2.22;1.50;;;;;;;;;;4977150;28;20031;-86
2023/07/21 06:50:07;;;;;;;4.25;1.50;;;;;;;;;;4985771;28;20030;-86
2023/07/21 06:52:32;;;;;;;2.88;1.48;;;;;;;;;;4962784;28;20098;-85
2023/07/21 06:54:58;;;;;;;2.40;1.55;;;;;;;;;;4957104;28;20440;-85
2023/07/21 06:57:24;;;;;;;2.67;1.77;;;;;;;;;;4982433;28;20037;-86
2023/07/21 06:59:49;;;;;;;3.15;1.33;;;;;;;;;;4954359;28;20136;-85
2023/07/21 07:02:15;;;;;;;5.65;1.50;;;;;;;;;;4956380;28;20062;-87
2023/07/21 07:04:41;;;;;;;1.80;1.20;;;;;;;;;;4973781;28;20465;-85
2023/07/21 07:07:06;;;;;;;3.10;1.30;;;;;;;;;;4976509;28;20513;-85
2023/07/21 07:09:32;;;;;;;3.47;1.42;;;;;;;;;;4965332;28;20059;-84
2023/07/21 07:11:57;;;;;;;2.70;1.73;;;;;;;;;;4973198;28;20106;-86
2023/07/21 07:14:22;;;;;;;2.47;1.45;;;;;;;;;;4985903;28;20038;-86
2023/07/21 07:16:48;;;;;;;4.57;1.73;;;;;;;;;;4973006;28;20027;-82
2023/07/21 07:19:13;;;;;;;4.55;1.30;;;;;;;;;;4976576;28;20512;-82
2023/07/21 07:21:39;;;;;;;3.58;1.30;;;;;;;;;;4989990;28;20026;-83
2023/07/21 07:24:05;;;;;;;3.58;1.20;;;;;;;;;;4994111;28;20019;-83
2023/07/21 07:26:31;;;;;;;1.73;1.30;;;;;;;;;;4988639;28;20101;-84
2023/07/21 07:28:57;;;;;;;2.70;1.20;;;;;;;;;;4980314;28;20077;-85
2023/07/21 07:31:22;;;;;;;2.25;1.70;;;;;;;;;;4968288;28;20022;-85
2023/07/21 07:33:47;;;;;;;2.63;1.20;;;;;;;;;;4987249;28;20026;-86
2023/07/21 07:36:13;;;;;;;3.83;1.48;;;;;;;;;;4966118;28;20027;-86
2023/07/21 07:38:38;;;;;;;3.58;1.80;;;;;;;;;;5002524;28;20096;-85
2023/07/21 07:41:08;;;;;;;2.38;1.50;;;;;;;;;;5000585;28;20022;-85
2023/07/21 07:43:34;;;;;;;3.80;1.50;;;;;;;;;;4980591;28;20450;-85
2023/07/21 07:46:00;;;;;;;3.75;1.80;;;;;;;;;;4973640;28;20034;-86
2023/07/21 07:48:25;;;;;;;3.85;1.60;;;;;;;;;;5005312;28;20022;-85
2023/07/21 07:50:54;;;;;;;3.30;1.30;;;;;;;;;;4983533;28;20033;-84
2023/07/21 07:53:21;;;;;;;3.28;1.42;;;;;;;;;;4970411;28;20556;-85
2023/07/21 07:55:46;;;;;;;2.75;1.63;;;;;;;;;;4963006;28;20034;-85
2023/07/21 07:58:12;;;;;;;2.20;1.70;;;;;;;;;;4987491;28;20043;-86
2023/07/21 08:00:41;;;;;;;4.15;1.70;;;;;;;;;;4984628;28;20027;-85
2023/07/21 08:03:11;;;;;;;3.80;2.05;;;;;;;;;;4969389;28;20082;-85
2023/07/21 08:05:39;;;;;;;3.08;1.48;;;;;;;;;;4990376;28;20031;-85
2023/07/21 08:08:05;;;;;;;1.35;1.15;;;;;;;;;;4977405;28;20044;-87
2023/07/21 08:10:32;;;;;;;1.70;1.25;;;;;;;;;;4975886;28;20041;-86
2023/07/21 08:12:59;;;;;;;3.60;1.58;;;;;;;;;;4974121;28;20030;-85
2023/07/21 08:15:25;;;;;;;11.13;1.10;;;;;;;;;;4977710;28;20346;-85
2023/07/21 08:17:51;;;;;;;3.53;1.52;;;;;;;;;;4979615;28;20047;-86
2023/07/21 08:20:18;;;;;;;6.70;1.38;;;;;;;;;;4969699;28;20042;-85
2023/07/21 08:22:48;;;;;;;4.70;1.40;;;;;;;;;;4981872;28;20030;-86
2023/07/21 08:25:22;;;;;;;6.13;1.50;;;;;;;;;;4967748;28;20030;-86
2023/07/21 08:27:48;;;;;;;2.75;1.60;;;;;;;;;;4966169;28;20053;-86
2023/07/21 08:30:15;;;;;;;3.78;1.52;;;;;;;;;;4967978;28;20038;-86
2023/07/21 08:32:41;;;;;;;5.47;1.73;;;;;;;;;;4986546;28;20777;-87
2023/07/21 08:35:07;;;;;;;3.42;1.17;;;;;;;;;;4969649;28;20028;-86
2023/07/21 08:37:33;;;;;;;2.95;1.30;;;;;;;;;;4974906;28;20028;-87
2023/07/21 08:39:59;;;;;;;3.17;1.20;;;;;;;;;;4984876;28;20101;-86
2023/07/21 08:42:25;;;;;;;2.65;1.10;;;;;;;;;;4978168;28;20042;-85
2023/07/21 08:44:53;;;;;;;1.77;1.23;;;;;;;;;;4984254;28;20030;-85
2023/07/21 08:47:19;;;;;;;2.05;1.40;;;;;;;;;;4988367;28;20027;-85
2023/07/21 08:49:45;;;;;;;1.52;1.20;;;;;;;;;;4986416;28;20078;-86
2023/07/21 08:52:11;;;;;;;1.55;1.10;;;;;;;;;;4967647;28;20465;-87
2023/07/21 08:54:36;;;;;;;2.15;1.15;;;;;;;;;;4977934;28;20030;-87
2023/07/21 08:57:02;;;;;;;2.03;1.10;;;;;;;;;;4993455;28;20037;-86
2023/07/21 08:59:27;;;;;;;1.25;1.10;;;;;;;;;;4962871;28;20026;-88
2023/07/21 09:01:53;;;;;;;4.53;1.30;;;;;;;;;;4993995;28;20042;-87
2023/07/21 09:04:20;;;;;;;3.80;1.50;;;;;;;;;;4977092;28;20037;-86
2023/07/21 09:06:50;;;;;;;6.20;1.35;;;;;;;;;;4972589;28;20022;-85
2023/07/21 09:09:20;;;;;;;7.30;1.38;;;;;;;;;;4976568;28;20533;-86
2023/07/21 09:11:46;;;;;;;2.60;1.40;;;;;;;;;;4967336;28;20026;-87
2023/07/21 09:14:12;;;;;;;3.78;1.38;;;;;;;;;;4989802;28;20037;-87
2023/07/21 09:16:41;;;;;;;2.60;1.20;;;;;;;;;;4957455;29;20126;-86
2023/07/21 09:19:07;;;;;;;2.28;1.48;;;;;;;;;;4969716;28;20106;-87
2023/07/21 09:21:35;;;;;;;4.05;1.40;;;;;;;;;;4981318;28;20066;-88
2023/07/21 09:24:02;;;;;;;6.25;1.33;;;;;;;;;;4957624;28;20023;-85
2023/07/21 09:26:28;;;;;;;6.30;1.60;;;;;;;;;;4964811;28;20031;-86
2023/07/21 09:28:53;;;;;;;5.03;1.30;;;;;;;;;;4982446;28;20022;-86
2023/07/21 09:31:27;;;;;;;1.98;1.20;;;;;;;;;;4982229;28;20582;-87
2023/07/21 09:33:52;;;;;;;1.45;1.15;;;;;;;;;;4969028;28;20026;-85
2023/07/21 09:36:18;;;;;;;3.15;1.33;;;;;;;;;;4977447;28;20033;-86
2023/07/21 09:38:44;;;;;;;5.10;1.67;;;;;;;;;;4972954;28;20397;-86
2023/07/21 09:41:12;;;;;;;1.98;1.35;;;;;;;;;;4968057;28;20070;-86
2023/07/21 09:43:38;;;;;;;1.50;1.10;;;;;;;;;;4977708;28;20102;-87
2023/07/21 09:46:06;;;;;;;5.70;1.20;;;;;;;;;;4975614;28;20018;-87
2023/07/21 09:48:34;;;;;;;3.17;1.42;;;;;;;;;;4956300;28;20106;-85
2023/07/21 09:51:07;;;;;;;2.83;1.40;;;;;;;;;;4960643;28;20037;-85
2023/07/21 09:54:04;;;;;;;2.45;1.15;;;;;;;;;;4978904;28;20165;-86
2023/07/21 09:56:34;;;;;;;1.60;1.27;;;;;;;;;;4957645;28;20043;-86
2023/07/21 09:59:06;;;;;;;1.48;1.35;;;;;;;;;;4956959;28;20022;-86
2023/07/21 10:01:40;;;;;;;2.65;1.30;;;;;;;;;;4958465;28;20388;-85
2023/07/21 10:04:06;;;;;;;4.30;1.15;;;;;;;;;;4966505;28;20030;-87
2023/07/21 10:06:33;;;;;;;1.88;1.20;;;;;;;;;;4974132;28;20031;-86
2023/07/21 10:08:59;;;;;;;1.45;1.20;;;;;;;;;;4953911;28;20034;-87
2023/07/21 10:11:36;;;;;;;2.40;1.33;;;;;;;;;;4962236;28;20046;-86
2023/07/21 10:14:01;;;;;;;6.05;1.38;;;;;;;;;;4962885;28;20049;-86
2023/07/21 10:16:30;;;;;;;2.33;1.02;;;;;;;;;;4963767;28;20023;-85
2023/07/21 10:19:11;;;;;;;4.40;1.10;;;;;;;;;;4962651;28;20027;-86
2023/07/21 10:21:56;;;;;;;1.38;1.20;;;;;;;;;;4972250;28;20053;-88
2023/07/21 10:24:28;;;;;;;1.98;1.30;;;;;;;;;;4956559;28;20061;-87
2023/07/21 10:27:23;;;;;;;1.85;1.30;;;;;;;;;;4976276;28;20037;-86
2023/07/21 10:30:12;;;;;;;3.15;1.48;;;;;;;;;;4959973;28;20022;-87
2023/07/21 10:32:44;;;;;;;3.00;1.30;;;;;;;;;;4956951;28;20485;-86
2023/07/21 10:35:36;;;;;;;1.60;1.17;;;;;;;;;;4970237;28;20070;-87
2023/07/21 10:38:18;;;;;;;2.30;0.95;;;;;;;;;;4954789;29;20042;-86
2023/07/21 10:40:45;;;;;;;1.17;1.00;;;;;;;;;;4951279;28;20044;-87
2023/07/21 10:43:11;;;;;;;3.60;1.25;;;;;;;;;;4957294;28;20385;-86
2023/07/21 10:45:37;;;;;;;3.13;1.30;;;;;;;;;;4975345;28;20030;-88
2023/07/21 10:48:11;;;;;;;2.40;1.13;;;;;;;;;;4958294;29;20031;-88
2023/07/21 10:50:58;;;;;;;2.83;1.25;;;;;;;;;;4983544;28;20431;-88
2023/07/21 10:53:24;;;;;;;1.88;1.40;;;;;;;;;;4987973;28;20469;-88
2023/07/21 10:55:53;;;;;;;1.65;1.05;;;;;;;;;;4957518;28;20062;-88
2023/07/21 10:58:19;;;;;;;2.03;1.20;;;;;;;;;;4958000;28;20125;-87
2023/07/21 11:00:49;;;;;;;4.25;1.23;;;;;;;;;;4956576;28;20089;-87
2023/07/21 11:03:16;;;;;;;2.13;1.55;;;;;;;;;;4941428;28;20116;-87
2023/07/21 11:05:41;;;;;;;1.40;1.17;;;;;;;;;;4965911;28;20150;-87
2023/07/21 11:08:12;;;;;;;2.40;1.10;;;;;;;;;;4955157;29;20031;-88
2023/07/21 11:10:38;;;;;;;1.60;1.17;;;;;;;;;;4968480;28;20030;-87
2023/07/21 11:13:03;;;;;;;2.03;1.20;;;;;;;;;;4947045;29;20386;-88
2023/07/21 11:15:29;;;;;;;1.67;1.42;;;;;;;;;;4976871;28;20027;-87
2023/07/21 11:18:04;;;;;;;1.33;1.23;;;;;;;;;;4954097;28;20027;-86
2023/07/21 11:20:30;;;;;;;1.52;1.25;;;;;;;;;;4967407;28;20096;-86
2023/07/21 11:22:56;;;;;;;2.05;1.30;;;;;;;;;;4972460;28;20023;-86
2023/07/21 11:25:22;;;;;;;3.47;1.80;;;;;;;;;;4977791;28;20035;-87
2023/07/21 11:27:48;;;;;;;2.88;1.58;;;;;;;;;;4985426;28;20022;-86
2023/07/21 11:30:18;;;;;;;3.15;1.30;;;;;;;;;;4955004;28;20030;-86
2023/07/21 11:32:46;;;;;;;1.67;1.20;;;;;;;;;;4974231;28;20284;-86
2023/07/21 11:35:11;;;;;;;1.20;1.08;;;;;;;;;;4947398;28;20124;-86
2023/07/21 11:37:44;;;;;;;2.20;1.33;;;;;;;;;;4963143;28;20047;-86
2023/07/21 11:40:15;;;;;;;2.28;1.33;;;;;;;;;;4978765;28;20054;-87
2023/07/21 11:42:49;;;;;;;2.05;1.50;;;;;;;;;;4977887;28;20381;-86
2023/07/21 11:45:39;;;;;;;1.50;1.27;;;;;;;;;;4967234;28;20039;-88
2023/07/21 11:48:20;;;;;;;3.92;1.33;;;;;;;;;;4997161;28;20029;-86
2023/07/21 11:50:50;;;;;;;1.33;1.23;;;;;;;;;;4983985;28;20019;-86
2023/07/21 11:53:15;;;;;;;1.23;1.20;;;;;;;;;;4960390;28;20035;-86
2023/07/21 11:55:41;;;;;;;2.17;1.30;;;;;;;;;;4959902;28;20026;-86
2023/07/21 11:58:06;;;;;;;3.30;1.58;;;;;;;;;;4955764;29;20086;-87
2023/07/21 12:00:32;;;;;;;4.60;1.40;;;;;;;;;;4960636;28;20023;-87
2023/07/21 12:02:58;;;;;;;4.15;1.52;;;;;;;;;;4961732;28;20062;-86
2023/07/21 12:05:24;;;;;;;2.97;1.40;;;;;;;;;;4981098;28;20042;-86
2023/07/21 12:07:50;;;;;;;1.60;1.48;;;;;;;;;;4955054;29;20027;-87
2023/07/21 12:10:16;;;;;;;1.75;1.23;;;;;;;;;;4960501;28;20088;-86
2023/07/21 12:12:41;;;;;;;5.22;1.38;;;;;;;;;;4968448;28;20023;-87
2023/07/21 12:15:09;;;;;;;2.65;1.70;;;;;;;;;;4979104;28;20030;-87
2023/07/21 12:17:35;;;;;;;2.45;1.63;;;;;;;;;;4978188;28;20449;-87
2023/07/21 12:20:00;;;;;;;1.00;0.90;;;;;;;;;;4966123;28;20031;-87
2023/07/21 12:22:25;;;;;;;7.05;1.63;;;;;;;;;;4987412;28;20023;-87
2023/07/21 12:24:51;;;;;;;3.05;1.38;;;;;;;;;;4965759;28;20018;-87
2023/07/21 12:27:16;;;;;;;3.42;1.30;;;;;;;;;;4957864;28;20031;-87
2023/07/21 12:29:42;;;;;;;1.63;1.35;;;;;;;;;;4971936;28;20474;-86
2023/07/21 12:32:07;;;;;;;3.25;1.38;;;;;;;;;;4966048;28;20019;-87
2023/07/21 12:34:33;;;;;;;1.40;1.30;;;;;;;;;;4976832;28;20105;-86
2023/07/21 12:36:58;;;;;;;2.05;1.20;;;;;;;;;;4961495;28;20026;-86
2023/07/21 12:39:24;;;;;;;2.83;1.50;;;;;;;;;;4986679;28;20026;-86
2023/07/21 12:41:49;;;;;;;4.03;1.85;;;;;;;;;;4970479;28;20034;-85
2023/07/21 12:47:52;;;;;;;1.33;1.15;;;;;;;;;;4977509;28;20082;-87
2023/07/21 12:50:17;;;;;;;2.22;1.25;;;;;;;;;;4959684;28;20217;-85
2023/07/21 12:52:42;;;;;;;2.70;1.20;;;;;;;;;;4969149;28;20033;-85
2023/07/21 12:55:08;;;;;;;2.20;1.20;;;;;;;;;;4984182;28;20044;-86
2023/07/21 12:57:33;;;;;;;1.58;0.93;;;;;;;;;;4948902;28;20023;-87
2023/07/21 12:59:59;;;;;;;3.33;1.33;;;;;;;;;;4950104;28;20023;-86
2023/07/21 13:02:24;;;;;;;6.88;1.40;;;;;;;;;;4960872;28;20035;-87
2023/07/21 13:04:50;;;;;;;2.13;1.40;;;;;;;;;;4955723;28;20031;-87
2023/07/21 13:08:14;;;;;;;7.82;1.50;;;;;;;;;;4964406;28;20034;-87
2023/07/21 13:10:47;;;;;;;5.43;1.47;;;;;;;;;;4962308;28;20030;-86
2023/07/21 13:13:12;;;;;;;3.05;1.60;;;;;;;;;;4967917;28;20014;-87
2023/07/21 13:15:37;;;;;;;12.07;1.60;;;;;;;;;;4979256;28;20054;-87
2023/07/21 13:18:04;;;;;;;1.73;1.20;;;;;;;;;;4961831;28;20027;-86
2023/07/21 13:20:30;;;;;;;3.15;1.50;;;;;;;;;;4982673;28;20050;-86
2023/07/21 13:22:55;;;;;;;1.70;0.98;;;;;;;;;;4963455;28;20027;-86
2023/07/21 13:25:20;;;;;;;4.00;1.00;;;;;;;;;;4969873;28;20124;-85
2023/07/21 13:27:46;;;;;;;2.10;1.20;;;;;;;;;;4963948;28;20022;-85
2023/07/21 13:30:11;;;;;;;1.95;1.17;;;;;;;;;;4981252;28;20460;-86
2023/07/21 13:32:37;;;;;;;2.53;1.30;;;;;;;;;;4962630;28;20018;-85
2023/07/21 13:35:03;;;;;;;3.00;1.33;;;;;;;;;;4966287;28;20053;-86
2023/07/21 13:37:28;;;;;;;3.85;1.30;;;;;;;;;;4980078;28;20077;-85
2023/07/21 13:39:54;;;;;;;2.08;1.30;;;;;;;;;;4966359;28;20027;-85
2023/07/21 13:42:19;;;;;;;3.50;1.65;;;;;;;;;;4957282;28;20030;-87
2023/07/21 13:44:50;;;;;;;2.42;1.50;;;;;;;;;;4962918;28;20028;-86
2023/07/21 13:47:33;;;;;;;1.75;1.35;;;;;;;;;;4968820;28;20030;-85
2023/07/21 13:50:15;;;;;;;2.03;1.10;;;;;;;;;;4991668;28;20807;-85
2023/07/21 13:52:41;;;;;;;2.13;1.13;;;;;;;;;;4964907;28;20030;-86
2023/07/21 13:55:16;;;;;;;1.30;0.82;;;;;;;;;;4963964;28;20042;-86
2023/07/21 14:01:06;;;;;;;1.70;1.00;;;;;;;;;;4982739;28;20632;-86
2023/07/21 14:03:31;;;;;;;2.40;1.50;;;;;;;;;;4951943;29;20043;-86
2023/07/21 14:05:57;;;;;;;0.70;0.70;;;;;;;;;;4971736;28;20029;-86
2023/07/21 14:08:23;;;;;;;2.60;1.40;;;;;;;;;;4961021;28;20030;-86
2023/07/21 14:10:49;;;;;;;4.93;1.40;;;;;;;;;;4979052;28;20042;-87
2023/07/21 14:13:14;;;;;;;4.97;1.05;;;;;;;;;;4978705;28;20027;-86
2023/07/21 14:15:40;;;;;;;2.17;1.15;;;;;;;;;;4972076;28;20176;-86
2023/07/21 14:18:17;;;;;;;1.73;1.30;;;;;;;;;;4971162;28;20074;-86
2023/07/21 14:20:43;;;;;;;2.00;1.10;;;;;;;;;;4966241;28;20026;-85
2023/07/21 14:23:08;;;;;;;1.95;1.13;;;;;;;;;;4973955;28;20033;-86
2023/07/21 14:25:34;;;;;;;1.60;1.17;;;;;;;;;;4966455;28;20026;-86
2023/07/21 14:27:59;;;;;;;1.27;1.13;;;;;;;;;;4966231;28;20029;-86
2023/07/21 14:30:25;;;;;;;6.43;1.50;;;;;;;;;;4972588;28;20031;-87
2023/07/21 14:32:50;;;;;;;2.20;1.60;;;;;;;;;;4962118;28;20023;-87
2023/07/21 14:35:17;;;;;;;1.38;1.08;;;;;;;;;;4958353;29;20114;-88
2023/07/21 14:37:43;;;;;;;4.80;1.42;;;;;;;;;;4975612;28;20105;-87
2023/07/21 14:40:11;;;;;;;3.05;1.27;;;;;;;;;;4960000;28;20302;-87
2023/07/21 14:42:40;;;;;;;4.82;1.48;;;;;;;;;;4959681;28;20027;-87
2023/07/21 14:45:07;;;;;;;5.10;1.70;;;;;;;;;;4961233;28;20102;-87
2023/07/21 14:47:33;;;;;;;2.70;1.52;;;;;;;;;;4960834;28;20030;-88
2023/07/21 14:49:59;;;;;;;2.28;1.63;;;;;;;;;;4966575;28;20030;-88
2023/07/21 14:52:24;;;;;;;7.15;2.33;;;;;;;;;;4961478;28;20023;-88